sensor_id;sensor_type;location;lat;lon;timestamp;temperature;humidity
53282;DHT22;39167;52.794;6.892;2023-05-10T00:01:23;14.90;99.90
53282;DHT22;39167;52.794;6.892;2023-05-10T00:03:49;14.80;99.90
53282;DHT22;39167;52.794;6.892;2023-05-10T00:06:15;14.70;99.90
53282;DHT22;39167;52.794;6.892;2023-05-10T00:08:40;14.70;99.90
53282;DHT22;39167;52.794;6.892;2023-05-10T00:11:06;14.60;99.90
53282;DHT22;39167;52.794;6.892;2023-05-10T00:13:32;14.50;99.90
53282;DHT22;39167;52.794;6.892;2023-05-10T00:15:58;14.40;99.90
53282;DHT22;39167;52.794;6.892;2023-05-10T00:18:24;14.40;99.90
53282;DHT22;39167;52.794;6.892;2023-05-10T00:20:49;14.30;99.90
53282;DHT22;39167;52.794;6.892;2023-05-10T00:23:15;14.30;99.90
53282;DHT22;39167;52.794;6.892;2023-05-10T00:25:41;14.30;99.90
53282;DHT22;39167;52.794;6.892;2023-05-10T00:28:07;14.20;99.90
53282;DHT22;39167;52.794;6.892;2023-05-10T00:30:32;14.20;99.90
53282;DHT22;39167;52.794;6.892;2023-05-10T00:32:58;14.20;99.90
53282;DHT22;39167;52.794;6.892;2023-05-10T00:35:24;14.20;99.90
53282;DHT22;39167;52.794;6.892;2023-05-10T00:37:50;14.20;99.90
53282;DHT22;39167;52.794;6.892;2023-05-10T00:40:15;14.20;99.90
53282;DHT22;39167;52.794;6.892;2023-05-10T00:42:41;14.10;99.90
53282;DHT22;39167;52.794;6.892;2023-05-10T00:45:07;14.10;99.90
53282;DHT22;39167;52.794;6.892;2023-05-10T00:47:34;14.10;99.90
53282;DHT22;39167;52.794;6.892;2023-05-10T00:53:41;14.00;99.90
53282;DHT22;39167;52.794;6.892;2023-05-10T00:56:08;14.00;99.90
53282;DHT22;39167;52.794;6.892;2023-05-10T00:58:33;13.90;99.90
53282;DHT22;39167;52.794;6.892;2023-05-10T01:01:00;13.90;99.90
53282;DHT22;39167;52.794;6.892;2023-05-10T01:03:26;13.90;99.90
53282;DHT22;39167;52.794;6.892;2023-05-10T01:05:53;13.90;99.90
53282;DHT22;39167;52.794;6.892;2023-05-10T01:08:19;13.80;99.90
53282;DHT22;39167;52.794;6.892;2023-05-10T01:10:45;13.90;99.90
53282;DHT22;39167;52.794;6.892;2023-05-10T01:13:12;13.90;99.90
53282;DHT22;39167;52.794;6.892;2023-05-10T01:15:38;13.80;99.90
53282;DHT22;39167;52.794;6.892;2023-05-10T01:18:05;13.80;99.90
53282;DHT22;39167;52.794;6.892;2023-05-10T01:20:37;13.80;99.90
53282;DHT22;39167;52.794;6.892;2023-05-10T01:31:36;13.80;99.90
53282;DHT22;39167;52.794;6.892;2023-05-10T01:34:14;13.80;99.90
53282;DHT22;39167;52.794;6.892;2023-05-10T01:36:55;13.80;99.90
53282;DHT22;39167;52.794;6.892;2023-05-10T01:39:24;13.70;99.90
53282;DHT22;39167;52.794;6.892;2023-05-10T01:42:08;13.70;99.90
53282;DHT22;39167;52.794;6.892;2023-05-10T01:44:42;13.70;99.90
53282;DHT22;39167;52.794;6.892;2023-05-10T01:47:20;13.60;99.90
53282;DHT22;39167;52.794;6.892;2023-05-10T01:49:50;13.60;99.90
53282;DHT22;39167;52.794;6.892;2023-05-10T01:52:19;13.60;99.90
53282;DHT22;39167;52.794;6.892;2023-05-10T01:54:56;13.60;99.90
53282;DHT22;39167;52.794;6.892;2023-05-10T01:57:27;13.60;99.90
53282;DHT22;39167;52.794;6.892;2023-05-10T01:59:54;13.60;99.90
53282;DHT22;39167;52.794;6.892;2023-05-10T02:02:21;13.60;99.90
53282;DHT22;39167;52.794;6.892;2023-05-10T02:04:50;13.60;99.90
53282;DHT22;39167;52.794;6.892;2023-05-10T02:07:16;13.60;99.90
53282;DHT22;39167;52.794;6.892;2023-05-10T02:09:44;13.50;99.90
53282;DHT22;39167;52.794;6.892;2023-05-10T02:12:14;13.50;99.90
53282;DHT22;39167;52.794;6.892;2023-05-10T02:14:41;13.50;99.90
53282;DHT22;39167;52.794;6.892;2023-05-10T02:17:08;13.40;99.90
53282;DHT22;39167;52.794;6.892;2023-05-10T02:19:38;13.50;99.90
53282;DHT22;39167;52.794;6.892;2023-05-10T02:22:05;13.50;99.90
53282;DHT22;39167;52.794;6.892;2023-05-10T02:24:33;13.50;99.90
53282;DHT22;39167;52.794;6.892;2023-05-10T02:27:00;13.50;99.90
53282;DHT22;39167;52.794;6.892;2023-05-10T02:29:28;13.50;99.90
53282;DHT22;39167;52.794;6.892;2023-05-10T02:31:55;13.50;99.90
53282;DHT22;39167;52.794;6.892;2023-05-10T02:34:23;13.50;99.90
53282;DHT22;39167;52.794;6.892;2023-05-10T02:36:50;13.40;99.90
53282;DHT22;39167;52.794;6.892;2023-05-10T02:39:19;13.40;99.90
53282;DHT22;39167;52.794;6.892;2023-05-10T02:41:48;13.40;99.90
53282;DHT22;39167;52.794;6.892;2023-05-10T02:44:17;13.40;99.90
53282;DHT22;39167;52.794;6.892;2023-05-10T02:46:44;13.40;99.90
53282;DHT22;39167;52.794;6.892;2023-05-10T02:49:10;13.30;99.90
53282;DHT22;39167;52.794;6.892;2023-05-10T02:51:50;13.40;99.90
53282;DHT22;39167;52.794;6.892;2023-05-10T02:54:20;13.40;99.90
53282;DHT22;39167;52.794;6.892;2023-05-10T02:56:51;13.40;99.90
53282;DHT22;39167;52.794;6.892;2023-05-10T02:59:18;13.40;99.90
53282;DHT22;39167;52.794;6.892;2023-05-10T03:01:44;13.40;99.90
53282;DHT22;39167;52.794;6.892;2023-05-10T03:04:09;13.40;99.90
53282;DHT22;39167;52.794;6.892;2023-05-10T03:06:35;13.40;99.90
53282;DHT22;39167;52.794;6.892;2023-05-10T03:09:01;13.30;99.90
53282;DHT22;39167;52.794;6.892;2023-05-10T03:16:58;13.40;99.90
53282;DHT22;39167;52.794;6.892;2023-05-10T03:19:47;13.40;99.90
53282;DHT22;39167;52.794;6.892;2023-05-10T03:22:25;13.30;99.90
53282;DHT22;39167;52.794;6.892;2023-05-10T03:24:55;13.30;99.90
53282;DHT22;39167;52.794;6.892;2023-05-10T03:27:23;13.30;99.90
53282;DHT22;39167;52.794;6.892;2023-05-10T03:29:51;13.30;99.90
53282;DHT22;39167;52.794;6.892;2023-05-10T03:32:18;13.30;99.90
53282;DHT22;39167;52.794;6.892;2023-05-10T03:34:43;13.30;99.90
53282;DHT22;39167;52.794;6.892;2023-05-10T03:37:09;13.30;99.90
53282;DHT22;39167;52.794;6.892;2023-05-10T03:39:35;13.30;99.90
53282;DHT22;39167;52.794;6.892;2023-05-10T03:42:01;13.30;99.90
53282;DHT22;39167;52.794;6.892;2023-05-10T03:44:27;13.30;99.90
53282;DHT22;39167;52.794;6.892;2023-05-10T03:46:53;13.30;99.90
53282;DHT22;39167;52.794;6.892;2023-05-10T03:49:18;13.30;99.90
53282;DHT22;39167;52.794;6.892;2023-05-10T03:51:44;13.20;99.90
53282;DHT22;39167;52.794;6.892;2023-05-10T03:54:10;13.20;99.90
53282;DHT22;39167;52.794;6.892;2023-05-10T03:56:35;13.20;99.90
53282;DHT22;39167;52.794;6.892;2023-05-10T03:59:01;13.20;99.90
53282;DHT22;39167;52.794;6.892;2023-05-10T04:01:35;13.20;99.90
53282;DHT22;39167;52.794;6.892;2023-05-10T04:04:01;13.20;99.90
53282;DHT22;39167;52.794;6.892;2023-05-10T04:06:27;13.20;99.90
53282;DHT22;39167;52.794;6.892;2023-05-10T04:08:52;13.20;99.90
53282;DHT22;39167;52.794;6.892;2023-05-10T04:11:18;13.20;99.90
53282;DHT22;39167;52.794;6.892;2023-05-10T04:13:43;13.20;99.90
53282;DHT22;39167;52.794;6.892;2023-05-10T04:16:09;13.10;99.90
53282;DHT22;39167;52.794;6.892;2023-05-10T04:18:35;13.10;99.90
53282;DHT22;39167;52.794;6.892;2023-05-10T04:21:01;13.10;99.90
53282;DHT22;39167;52.794;6.892;2023-05-10T04:23:27;13.10;99.90
53282;DHT22;39167;52.794;6.892;2023-05-10T04:25:58;13.10;99.90
53282;DHT22;39167;52.794;6.892;2023-05-10T04:28:24;13.10;99.90
53282;DHT22;39167;52.794;6.892;2023-05-10T04:30:49;13.00;99.90
53282;DHT22;39167;52.794;6.892;2023-05-10T04:33:15;13.00;99.90
53282;DHT22;39167;52.794;6.892;2023-05-10T04:35:41;13.00;99.90
53282;DHT22;39167;52.794;6.892;2023-05-10T04:38:06;13.00;99.90
53282;DHT22;39167;52.794;6.892;2023-05-10T04:40:32;13.00;99.90
53282;DHT22;39167;52.794;6.892;2023-05-10T04:42:58;13.00;99.90
53282;DHT22;39167;52.794;6.892;2023-05-10T04:45:23;12.90;99.90
53282;DHT22;39167;52.794;6.892;2023-05-10T04:47:49;13.00;99.90
53282;DHT22;39167;52.794;6.892;2023-05-10T04:50:15;13.00;99.90
53282;DHT22;39167;52.794;6.892;2023-05-10T04:52:40;13.00;99.90
53282;DHT22;39167;52.794;6.892;2023-05-10T04:55:06;13.00;99.90
53282;DHT22;39167;52.794;6.892;2023-05-10T04:57:34;13.00;99.90
53282;DHT22;39167;52.794;6.892;2023-05-10T05:00:00;12.90;99.90
53282;DHT22;39167;52.794;6.892;2023-05-10T05:02:27;13.00;99.90
53282;DHT22;39167;52.794;6.892;2023-05-10T05:04:52;13.00;99.90
53282;DHT22;39167;52.794;6.892;2023-05-10T05:07:18;13.00;99.90
53282;DHT22;39167;52.794;6.892;2023-05-10T05:09:44;13.00;99.90
53282;DHT22;39167;52.794;6.892;2023-05-10T05:12:09;13.00;99.90
53282;DHT22;39167;52.794;6.892;2023-05-10T05:14:39;13.00;99.90
53282;DHT22;39167;52.794;6.892;2023-05-10T05:17:05;13.00;99.90
53282;DHT22;39167;52.794;6.892;2023-05-10T05:19:31;13.00;99.90
53282;DHT22;39167;52.794;6.892;2023-05-10T05:21:57;13.00;99.90
53282;DHT22;39167;52.794;6.892;2023-05-10T05:24:23;13.00;99.90
53282;DHT22;39167;52.794;6.892;2023-05-10T05:26:48;13.10;99.90
53282;DHT22;39167;52.794;6.892;2023-05-10T05:29:14;13.00;99.90
53282;DHT22;39167;52.794;6.892;2023-05-10T05:31:40;13.00;99.90
53282;DHT22;39167;52.794;6.892;2023-05-10T05:34:05;13.00;99.90
53282;DHT22;39167;52.794;6.892;2023-05-10T05:36:31;13.00;99.90
53282;DHT22;39167;52.794;6.892;2023-05-10T05:38:57;13.00;99.90
53282;DHT22;39167;52.794;6.892;2023-05-10T05:41:23;13.00;99.90
53282;DHT22;39167;52.794;6.892;2023-05-10T05:43:50;13.00;99.90
53282;DHT22;39167;52.794;6.892;2023-05-10T05:46:15;13.00;99.90
53282;DHT22;39167;52.794;6.892;2023-05-10T05:48:41;13.00;99.90
53282;DHT22;39167;52.794;6.892;2023-05-10T05:51:07;13.00;99.90
53282;DHT22;39167;52.794;6.892;2023-05-10T05:53:32;12.90;99.90
53282;DHT22;39167;52.794;6.892;2023-05-10T05:55:59;12.90;99.90
53282;DHT22;39167;52.794;6.892;2023-05-10T05:58:25;12.90;99.90
53282;DHT22;39167;52.794;6.892;2023-05-10T06:00:51;12.90;99.90
53282;DHT22;39167;52.794;6.892;2023-05-10T06:03:18;12.90;99.90
53282;DHT22;39167;52.794;6.892;2023-05-10T06:05:44;12.90;99.90
53282;DHT22;39167;52.794;6.892;2023-05-10T06:08:10;12.90;99.90
53282;DHT22;39167;52.794;6.892;2023-05-10T06:10:36;12.90;99.90
53282;DHT22;39167;52.794;6.892;2023-05-10T06:13:02;12.90;99.90
53282;DHT22;39167;52.794;6.892;2023-05-10T06:15:28;12.90;99.90
53282;DHT22;39167;52.794;6.892;2023-05-10T06:17:54;12.90;99.90
53282;DHT22;39167;52.794;6.892;2023-05-10T06:20:19;12.90;99.90
53282;DHT22;39167;52.794;6.892;2023-05-10T06:22:45;12.90;99.90
53282;DHT22;39167;52.794;6.892;2023-05-10T06:25:11;12.90;99.90
53282;DHT22;39167;52.794;6.892;2023-05-10T06:27:37;12.90;99.90
53282;DHT22;39167;52.794;6.892;2023-05-10T06:30:04;12.90;99.90
53282;DHT22;39167;52.794;6.892;2023-05-10T06:32:30;12.90;99.90
53282;DHT22;39167;52.794;6.892;2023-05-10T06:34:56;12.90;99.90
53282;DHT22;39167;52.794;6.892;2023-05-10T06:37:21;12.90;99.90
53282;DHT22;39167;52.794;6.892;2023-05-10T06:39:47;12.90;99.90
53282;DHT22;39167;52.794;6.892;2023-05-10T06:42:13;12.90;99.90
53282;DHT22;39167;52.794;6.892;2023-05-10T06:44:39;12.90;99.90
53282;DHT22;39167;52.794;6.892;2023-05-10T06:47:05;12.90;99.90
53282;DHT22;39167;52.794;6.892;2023-05-10T06:49:31;12.90;99.90
53282;DHT22;39167;52.794;6.892;2023-05-10T06:51:57;12.90;99.90
53282;DHT22;39167;52.794;6.892;2023-05-10T06:54:22;12.90;99.90
53282;DHT22;39167;52.794;6.892;2023-05-10T06:56:48;12.90;99.90
53282;DHT22;39167;52.794;6.892;2023-05-10T06:59:14;12.90;99.90
53282;DHT22;39167;52.794;6.892;2023-05-10T07:01:42;12.90;99.90
53282;DHT22;39167;52.794;6.892;2023-05-10T07:04:08;12.90;99.90
53282;DHT22;39167;52.794;6.892;2023-05-10T07:06:34;12.90;99.90
53282;DHT22;39167;52.794;6.892;2023-05-10T07:09:00;12.90;99.90
53282;DHT22;39167;52.794;6.892;2023-05-10T07:11:26;12.90;99.90
53282;DHT22;39167;52.794;6.892;2023-05-10T07:13:52;12.90;99.90
53282;DHT22;39167;52.794;6.892;2023-05-10T07:16:18;12.90;99.90
53282;DHT22;39167;52.794;6.892;2023-05-10T07:18:44;13.00;99.90
53282;DHT22;39167;52.794;6.892;2023-05-10T07:21:09;13.00;99.90
53282;DHT22;39167;52.794;6.892;2023-05-10T07:23:35;13.00;99.90
53282;DHT22;39167;52.794;6.892;2023-05-10T07:26:01;13.00;99.90
53282;DHT22;39167;52.794;6.892;2023-05-10T07:28:27;13.00;99.90
53282;DHT22;39167;52.794;6.892;2023-05-10T07:30:53;13.00;99.90
53282;DHT22;39167;52.794;6.892;2023-05-10T07:33:19;12.90;99.90
53282;DHT22;39167;52.794;6.892;2023-05-10T07:35:45;12.90;99.90
53282;DHT22;39167;52.794;6.892;2023-05-10T07:38:11;13.00;99.90
53282;DHT22;39167;52.794;6.892;2023-05-10T07:40:36;13.00;99.90
53282;DHT22;39167;52.794;6.892;2023-05-10T07:43:02;13.00;99.90
53282;DHT22;39167;52.794;6.892;2023-05-10T07:45:28;13.00;99.90
53282;DHT22;39167;52.794;6.892;2023-05-10T07:47:54;13.00;99.90
53282;DHT22;39167;52.794;6.892;2023-05-10T07:50:20;13.10;99.90
53282;DHT22;39167;52.794;6.892;2023-05-10T07:52:47;13.10;99.90
53282;DHT22;39167;52.794;6.892;2023-05-10T07:55:13;13.10;99.90
53282;DHT22;39167;52.794;6.892;2023-05-10T07:57:39;13.10;99.90
53282;DHT22;39167;52.794;6.892;2023-05-10T08:00:06;13.20;99.90
53282;DHT22;39167;52.794;6.892;2023-05-10T08:02:34;13.20;99.90
53282;DHT22;39167;52.794;6.892;2023-05-10T08:05:00;13.20;99.90
53282;DHT22;39167;52.794;6.892;2023-05-10T08:07:26;13.20;99.90
53282;DHT22;39167;52.794;6.892;2023-05-10T08:09:51;13.20;99.90
53282;DHT22;39167;52.794;6.892;2023-05-10T08:12:17;13.20;99.90
53282;DHT22;39167;52.794;6.892;2023-05-10T08:14:43;13.20;99.90
53282;DHT22;39167;52.794;6.892;2023-05-10T08:17:08;13.20;99.90
53282;DHT22;39167;52.794;6.892;2023-05-10T08:19:34;13.20;99.90
53282;DHT22;39167;52.794;6.892;2023-05-10T08:22:00;13.30;99.90
53282;DHT22;39167;52.794;6.892;2023-05-10T08:24:26;13.30;99.90
53282;DHT22;39167;52.794;6.892;2023-05-10T08:26:51;13.30;99.90
53282;DHT22;39167;52.794;6.892;2023-05-10T08:29:17;13.30;99.90
53282;DHT22;39167;52.794;6.892;2023-05-10T08:31:43;13.30;99.90
53282;DHT22;39167;52.794;6.892;2023-05-10T08:34:09;13.30;99.90
53282;DHT22;39167;52.794;6.892;2023-05-10T08:36:34;13.30;99.90
53282;DHT22;39167;52.794;6.892;2023-05-10T08:39:00;13.30;99.90
53282;DHT22;39167;52.794;6.892;2023-05-10T08:41:26;13.20;99.90
53282;DHT22;39167;52.794;6.892;2023-05-10T08:43:53;13.30;99.90
53282;DHT22;39167;52.794;6.892;2023-05-10T08:46:20;13.30;99.90
53282;DHT22;39167;52.794;6.892;2023-05-10T08:48:48;13.30;99.90
53282;DHT22;39167;52.794;6.892;2023-05-10T08:51:15;13.30;99.90
53282;DHT22;39167;52.794;6.892;2023-05-10T08:53:44;13.30;99.90
53282;DHT22;39167;52.794;6.892;2023-05-10T08:56:09;13.30;99.90
53282;DHT22;39167;52.794;6.892;2023-05-10T08:58:36;13.30;99.90
53282;DHT22;39167;52.794;6.892;2023-05-10T09:01:03;13.60;99.90
53282;DHT22;39167;52.794;6.892;2023-05-10T09:03:29;13.40;99.90
53282;DHT22;39167;52.794;6.892;2023-05-10T09:05:55;13.40;99.90
53282;DHT22;39167;52.794;6.892;2023-05-10T09:08:23;13.50;99.90
53282;DHT22;39167;52.794;6.892;2023-05-10T09:10:51;13.50;99.90
53282;DHT22;39167;52.794;6.892;2023-05-10T09:13:18;13.50;99.90
53282;DHT22;39167;52.794;6.892;2023-05-10T09:15:45;13.50;99.90
53282;DHT22;39167;52.794;6.892;2023-05-10T09:18:11;13.50;99.90
53282;DHT22;39167;52.794;6.892;2023-05-10T09:20:37;13.50;99.90
53282;DHT22;39167;52.794;6.892;2023-05-10T09:23:02;13.50;99.90
53282;DHT22;39167;52.794;6.892;2023-05-10T09:25:28;13.50;99.90
53282;DHT22;39167;52.794;6.892;2023-05-10T09:27:55;13.50;99.90
53282;DHT22;39167;52.794;6.892;2023-05-10T09:30:28;13.50;99.90
53282;DHT22;39167;52.794;6.892;2023-05-10T09:32:55;13.40;99.90
53282;DHT22;39167;52.794;6.892;2023-05-10T09:35:23;13.40;99.90
53282;DHT22;39167;52.794;6.892;2023-05-10T09:37:51;13.40;99.90
53282;DHT22;39167;52.794;6.892;2023-05-10T09:40:18;13.40;99.90
53282;DHT22;39167;52.794;6.892;2023-05-10T09:42:58;13.40;99.90
53282;DHT22;39167;52.794;6.892;2023-05-10T09:45:27;13.50;99.90
53282;DHT22;39167;52.794;6.892;2023-05-10T09:47:53;13.50;99.90
53282;DHT22;39167;52.794;6.892;2023-05-10T09:50:19;13.50;99.90
53282;DHT22;39167;52.794;6.892;2023-05-10T09:53:06;13.60;99.90
53282;DHT22;39167;52.794;6.892;2023-05-10T09:55:40;13.60;99.90
53282;DHT22;39167;52.794;6.892;2023-05-10T09:58:06;13.70;99.90
53282;DHT22;39167;52.794;6.892;2023-05-10T10:00:40;13.80;99.90
53282;DHT22;39167;52.794;6.892;2023-05-10T10:03:15;13.90;99.90
53282;DHT22;39167;52.794;6.892;2023-05-10T10:05:41;14.00;99.90
53282;DHT22;39167;52.794;6.892;2023-05-10T10:08:08;14.00;99.90
53282;DHT22;39167;52.794;6.892;2023-05-10T10:10:34;14.00;99.90
53282;DHT22;39167;52.794;6.892;2023-05-10T10:13:00;14.00;99.90
53282;DHT22;39167;52.794;6.892;2023-05-10T10:15:27;14.00;99.90
53282;DHT22;39167;52.794;6.892;2023-05-10T10:17:53;14.00;99.90
53282;DHT22;39167;52.794;6.892;2023-05-10T10:20:20;14.00;99.90
53282;DHT22;39167;52.794;6.892;2023-05-10T10:22:47;14.00;99.90
53282;DHT22;39167;52.794;6.892;2023-05-10T10:25:20;14.00;99.90
53282;DHT22;39167;52.794;6.892;2023-05-10T10:28:23;14.00;99.90
53282;DHT22;39167;52.794;6.892;2023-05-10T10:30:53;14.00;99.90
53282;DHT22;39167;52.794;6.892;2023-05-10T10:49:37;14.20;99.90
53282;DHT22;39167;52.794;6.892;2023-05-10T10:52:49;14.30;99.90
53282;DHT22;39167;52.794;6.892;2023-05-10T10:55:29;14.30;99.90
53282;DHT22;39167;52.794;6.892;2023-05-10T10:57:57;14.30;99.90
53282;DHT22;39167;52.794;6.892;2023-05-10T11:03:14;14.40;99.90
53282;DHT22;39167;52.794;6.892;2023-05-10T11:09:09;13.90;99.90
53282;DHT22;39167;52.794;6.892;2023-05-10T11:11:36;14.40;99.90
53282;DHT22;39167;52.794;6.892;2023-05-10T11:14:13;14.30;99.90
53282;DHT22;39167;52.794;6.892;2023-05-10T11:16:43;14.30;99.90
53282;DHT22;39167;52.794;6.892;2023-05-10T11:19:11;14.30;99.90
53282;DHT22;39167;52.794;6.892;2023-05-10T11:21:51;14.30;99.90
53282;DHT22;39167;52.794;6.892;2023-05-10T11:24:19;14.30;99.90
53282;DHT22;39167;52.794;6.892;2023-05-10T11:26:45;14.30;99.90
53282;DHT22;39167;52.794;6.892;2023-05-10T11:29:12;14.40;99.90
53282;DHT22;39167;52.794;6.892;2023-05-10T11:31:45;14.40;99.90
53282;DHT22;39167;52.794;6.892;2023-05-10T11:34:26;14.40;99.90
53282;DHT22;39167;52.794;6.892;2023-05-10T11:36:55;14.40;99.90
53282;DHT22;39167;52.794;6.892;2023-05-10T11:39:25;14.40;99.90
53282;DHT22;39167;52.794;6.892;2023-05-10T11:41:51;14.40;99.90
53282;DHT22;39167;52.794;6.892;2023-05-10T11:44:17;14.50;99.90
53282;DHT22;39167;52.794;6.892;2023-05-10T11:46:42;14.50;99.90
53282;DHT22;39167;52.794;6.892;2023-05-10T11:49:08;14.50;99.90
53282;DHT22;39167;52.794;6.892;2023-05-10T11:51:35;14.50;99.90
53282;DHT22;39167;52.794;6.892;2023-05-10T11:54:05;14.60;99.90
53282;DHT22;39167;52.794;6.892;2023-05-10T11:56:32;14.60;99.90
53282;DHT22;39167;52.794;6.892;2023-05-10T11:58:58;14.60;99.90
53282;DHT22;39167;52.794;6.892;2023-05-10T12:01:26;14.60;99.90
53282;DHT22;39167;52.794;6.892;2023-05-10T12:03:53;14.60;99.90
53282;DHT22;39167;52.794;6.892;2023-05-10T12:06:20;14.60;99.90
53282;DHT22;39167;52.794;6.892;2023-05-10T12:08:47;14.60;99.90
53282;DHT22;39167;52.794;6.892;2023-05-10T12:11:15;14.70;99.90
53282;DHT22;39167;52.794;6.892;2023-05-10T12:13:42;14.70;99.90
53282;DHT22;39167;52.794;6.892;2023-05-10T12:16:24;14.70;99.90
53282;DHT22;39167;52.794;6.892;2023-05-10T12:18:51;14.70;99.90
53282;DHT22;39167;52.794;6.892;2023-05-10T12:21:21;14.80;99.90
53282;DHT22;39167;52.794;6.892;2023-05-10T12:23:52;14.80;99.90
53282;DHT22;39167;52.794;6.892;2023-05-10T12:26:21;14.70;99.90
53282;DHT22;39167;52.794;6.892;2023-05-10T12:28:46;14.70;99.90
53282;DHT22;39167;52.794;6.892;2023-05-10T12:31:12;14.70;99.90
53282;DHT22;39167;52.794;6.892;2023-05-10T12:33:40;14.70;99.90
53282;DHT22;39167;52.794;6.892;2023-05-10T12:36:10;14.70;99.90
53282;DHT22;39167;52.794;6.892;2023-05-10T12:38:39;14.70;99.90
53282;DHT22;39167;52.794;6.892;2023-05-10T12:41:15;14.70;99.90
53282;DHT22;39167;52.794;6.892;2023-05-10T12:43:41;14.80;99.90
53282;DHT22;39167;52.794;6.892;2023-05-10T12:46:09;14.70;99.90
53282;DHT22;39167;52.794;6.892;2023-05-10T12:48:35;14.70;99.90
53282;DHT22;39167;52.794;6.892;2023-05-10T12:51:02;14.70;99.90
53282;DHT22;39167;52.794;6.892;2023-05-10T12:53:28;14.80;99.90
53282;DHT22;39167;52.794;6.892;2023-05-10T12:55:54;14.80;99.90
53282;DHT22;39167;52.794;6.892;2023-05-10T12:58:20;14.80;99.90
53282;DHT22;39167;52.794;6.892;2023-05-10T13:00:46;14.90;99.90
53282;DHT22;39167;52.794;6.892;2023-05-10T13:03:12;14.90;99.90
53282;DHT22;39167;52.794;6.892;2023-05-10T13:05:38;14.90;99.90
53282;DHT22;39167;52.794;6.892;2023-05-10T13:08:04;14.90;99.90
53282;DHT22;39167;52.794;6.892;2023-05-10T13:10:30;14.90;99.90
53282;DHT22;39167;52.794;6.892;2023-05-10T13:12:57;14.90;99.90
53282;DHT22;39167;52.794;6.892;2023-05-10T13:15:23;15.00;99.90
53282;DHT22;39167;52.794;6.892;2023-05-10T13:17:49;15.00;99.90
53282;DHT22;39167;52.794;6.892;2023-05-10T13:20:15;15.00;99.90
53282;DHT22;39167;52.794;6.892;2023-05-10T13:22:42;15.00;99.90
53282;DHT22;39167;52.794;6.892;2023-05-10T13:25:08;15.00;99.90
53282;DHT22;39167;52.794;6.892;2023-05-10T13:27:39;15.00;99.90
53282;DHT22;39167;52.794;6.892;2023-05-10T13:30:07;15.00;99.90
53282;DHT22;39167;52.794;6.892;2023-05-10T13:32:33;15.10;99.90
53282;DHT22;39167;52.794;6.892;2023-05-10T13:34:59;15.00;99.90
53282;DHT22;39167;52.794;6.892;2023-05-10T13:37:25;15.10;99.90
53282;DHT22;39167;52.794;6.892;2023-05-10T13:39:50;15.10;99.90
53282;DHT22;39167;52.794;6.892;2023-05-10T13:42:17;15.10;99.90
53282;DHT22;39167;52.794;6.892;2023-05-10T13:44:44;15.10;99.90
53282;DHT22;39167;52.794;6.892;2023-05-10T13:47:09;15.10;99.90
53282;DHT22;39167;52.794;6.892;2023-05-10T13:49:36;15.10;99.90
53282;DHT22;39167;52.794;6.892;2023-05-10T13:52:01;15.10;99.90
53282;DHT22;39167;52.794;6.892;2023-05-10T13:54:36;15.20;99.90
53282;DHT22;39167;52.794;6.892;2023-05-10T13:57:02;15.20;99.90
53282;DHT22;39167;52.794;6.892;2023-05-10T13:59:28;15.20;99.90
53282;DHT22;39167;52.794;6.892;2023-05-10T14:01:54;15.20;99.90
53282;DHT22;39167;52.794;6.892;2023-05-10T14:04:20;15.20;99.90
53282;DHT22;39167;52.794;6.892;2023-05-10T14:06:46;15.20;99.90
53282;DHT22;39167;52.794;6.892;2023-05-10T14:09:12;15.20;99.90
53282;DHT22;39167;52.794;6.892;2023-05-10T14:11:38;15.20;99.90
53282;DHT22;39167;52.794;6.892;2023-05-10T14:14:07;15.20;99.90
53282;DHT22;39167;52.794;6.892;2023-05-10T14:16:33;15.20;99.90
53282;DHT22;39167;52.794;6.892;2023-05-10T14:18:58;15.20;99.90
53282;DHT22;39167;52.794;6.892;2023-05-10T14:21:24;15.20;99.90
53282;DHT22;39167;52.794;6.892;2023-05-10T14:23:50;15.20;99.90
53282;DHT22;39167;52.794;6.892;2023-05-10T14:26:15;15.10;99.90
53282;DHT22;39167;52.794;6.892;2023-05-10T14:28:41;15.20;99.90
53282;DHT22;39167;52.794;6.892;2023-05-10T14:31:07;15.10;99.90
53282;DHT22;39167;52.794;6.892;2023-05-10T14:33:33;15.10;99.90
53282;DHT22;39167;52.794;6.892;2023-05-10T14:35:58;15.10;99.90
53282;DHT22;39167;52.794;6.892;2023-05-10T14:38:25;15.10;99.90
53282;DHT22;39167;52.794;6.892;2023-05-10T14:40:52;15.00;99.90
53282;DHT22;39167;52.794;6.892;2023-05-10T14:43:17;15.10;99.90
53282;DHT22;39167;52.794;6.892;2023-05-10T14:45:43;15.10;99.90
53282;DHT22;39167;52.794;6.892;2023-05-10T14:48:10;15.00;99.90
53282;DHT22;39167;52.794;6.892;2023-05-10T14:50:40;14.90;99.90
53282;DHT22;39167;52.794;6.892;2023-05-10T14:53:06;14.90;99.90
53282;DHT22;39167;52.794;6.892;2023-05-10T14:55:32;15.00;99.90
53282;DHT22;39167;52.794;6.892;2023-05-10T14:57:58;15.00;99.90
53282;DHT22;39167;52.794;6.892;2023-05-10T15:00:24;15.00;99.90
53282;DHT22;39167;52.794;6.892;2023-05-10T15:02:49;14.90;99.90
53282;DHT22;39167;52.794;6.892;2023-05-10T15:05:15;15.00;99.90
53282;DHT22;39167;52.794;6.892;2023-05-10T15:07:41;15.00;99.90
53282;DHT22;39167;52.794;6.892;2023-05-10T15:10:09;15.00;99.90
53282;DHT22;39167;52.794;6.892;2023-05-10T15:12:35;15.00;99.90
53282;DHT22;39167;52.794;6.892;2023-05-10T15:15:01;15.00;99.90
53282;DHT22;39167;52.794;6.892;2023-05-10T15:17:27;15.00;99.90
53282;DHT22;39167;52.794;6.892;2023-05-10T15:19:53;15.00;99.90
53282;DHT22;39167;52.794;6.892;2023-05-10T15:22:18;15.00;99.90
53282;DHT22;39167;52.794;6.892;2023-05-10T15:24:44;15.00;99.90
53282;DHT22;39167;52.794;6.892;2023-05-10T15:27:10;15.00;99.90
53282;DHT22;39167;52.794;6.892;2023-05-10T15:29:36;15.00;99.90
53282;DHT22;39167;52.794;6.892;2023-05-10T15:32:02;15.00;99.90
53282;DHT22;39167;52.794;6.892;2023-05-10T15:34:28;15.10;99.90
53282;DHT22;39167;52.794;6.892;2023-05-10T15:36:54;15.10;99.90
53282;DHT22;39167;52.794;6.892;2023-05-10T15:39:19;14.90;99.90
53282;DHT22;39167;52.794;6.892;2023-05-10T15:41:45;15.10;99.90
53282;DHT22;39167;52.794;6.892;2023-05-10T15:44:12;15.00;99.90
53282;DHT22;39167;52.794;6.892;2023-05-10T15:46:38;15.10;99.90
53282;DHT22;39167;52.794;6.892;2023-05-10T15:49:04;15.10;99.90
53282;DHT22;39167;52.794;6.892;2023-05-10T15:51:31;15.10;99.90
53282;DHT22;39167;52.794;6.892;2023-05-10T15:53:58;15.10;99.90
53282;DHT22;39167;52.794;6.892;2023-05-10T15:56:24;15.10;99.90
53282;DHT22;39167;52.794;6.892;2023-05-10T15:58:49;15.10;99.90
53282;DHT22;39167;52.794;6.892;2023-05-10T16:01:15;15.10;99.90
53282;DHT22;39167;52.794;6.892;2023-05-10T16:03:41;15.20;99.90
53282;DHT22;39167;52.794;6.892;2023-05-10T16:06:07;15.20;99.90
53282;DHT22;39167;52.794;6.892;2023-05-10T16:08:36;15.20;99.90
53282;DHT22;39167;52.794;6.892;2023-05-10T16:11:03;15.20;99.90